createdAt,value
2023-04-16T00:03:00.445Z,24.00
2023-04-16T00:08:02.733Z,28.77
2023-04-16T00:13:04.586Z,27.70
2023-04-16T00:18:06.413Z,34.55
2023-04-16T00:23:08.216Z,28.83
2023-04-16T00:28:11.093Z,27.38
2023-04-16T00:33:13.005Z,29.48
2023-04-16T00:38:14.923Z,28.30
2023-04-16T00:43:24.925Z,29.10
2023-04-16T00:48:28.347Z,25.85
2023-04-16T00:53:30.845Z,24.73
2023-04-16T00:58:35.655Z,26.80
2023-04-16T01:03:39.853Z,28.65
2023-04-16T01:08:41.836Z,30.63
2023-04-16T01:13:43.726Z,28.67
2023-04-16T01:18:46.157Z,31.17
2023-04-16T01:23:48.116Z,31.35
2023-04-16T01:28:49.910Z,30.58
2023-04-16T01:33:51.815Z,33.47
2023-04-16T01:38:53.821Z,37.22
2023-04-16T01:43:55.852Z,35.15
2023-04-16T01:48:59.504Z,31.00
2023-04-16T01:54:01.338Z,33.00
2023-04-16T01:59:03.386Z,32.38
2023-04-16T02:04:12.119Z,32.65
2023-04-16T02:09:14.312Z,31.23
2023-04-16T02:14:16.170Z,29.75
2023-04-16T02:19:18.290Z,29.80
2023-04-16T02:24:21.786Z,29.20
2023-04-16T02:29:24.339Z,33.88
2023-04-16T02:34:33.737Z,39.20
2023-04-16T02:39:35.639Z,34.45
2023-04-16T02:44:37.453Z,31.27
2023-04-16T02:49:39.489Z,34.00
2023-04-16T02:54:41.282Z,34.03
2023-04-16T02:59:43.212Z,28.80
2023-04-16T03:04:45.076Z,32.33
2023-04-16T03:09:46.941Z,30.30
2023-04-16T03:14:51.680Z,30.50
2023-04-16T03:19:53.621Z,25.60
2023-04-16T03:24:55.434Z,26.42
2023-04-16T03:29:57.307Z,27.10
2023-04-16T03:35:00.072Z,29.38
2023-04-16T03:40:02.585Z,29.25
2023-04-16T03:45:06.800Z,30.38
2023-04-16T03:50:09.299Z,23.67
2023-04-16T03:55:11.476Z,29.40
2023-04-16T04:00:14.260Z,32.72
2023-04-16T04:05:43.072Z,29.15
2023-04-16T04:10:48.008Z,30.63
2023-04-16T04:15:51.004Z,31.85
2023-04-16T04:20:52.941Z,31.23
2023-04-16T04:25:58.455Z,31.60
2023-04-16T04:31:02.117Z,26.90
2023-04-16T04:36:06.208Z,27.30
2023-04-16T04:41:09.341Z,27.85
2023-04-16T04:46:13.212Z,28.85
2023-04-16T04:51:16.100Z,31.55
2023-04-16T04:56:20.881Z,26.23
2023-04-16T05:01:23.488Z,27.33
2023-04-16T05:06:26.362Z,32.95
2023-04-16T05:11:29.853Z,29.15
2023-04-16T05:16:31.653Z,28.75
2023-04-16T05:21:34.112Z,28.13
2023-04-16T05:26:35.979Z,28.30
2023-04-16T05:31:37.854Z,30.83
2023-04-16T05:36:39.643Z,28.08
2023-04-16T05:41:41.407Z,28.00
2023-04-16T05:46:43.230Z,31.40
2023-04-16T05:51:45.036Z,30.38
2023-04-16T05:56:46.797Z,26.70
2023-04-16T06:01:48.720Z,35.75
2023-04-16T06:06:50.783Z,28.25
2023-04-16T06:11:52.661Z,27.45
2023-04-16T06:16:54.455Z,27.10
2023-04-16T06:21:57.138Z,28.15
2023-04-16T06:26:58.907Z,20.38
2023-04-16T06:32:00.866Z,21.80
2023-04-16T06:37:02.657Z,18.65
2023-04-16T06:42:04.856Z,25.83
2023-04-16T06:47:06.683Z,22.52
2023-04-16T06:52:08.577Z,20.15
2023-04-16T06:57:11.314Z,18.60
2023-04-16T07:02:13.328Z,19.08
2023-04-16T07:07:15.281Z,15.73
2023-04-16T07:12:17.104Z,15.63
2023-04-16T07:17:19.056Z,24.33
2023-04-16T07:22:21.141Z,13.45
2023-04-16T07:27:22.914Z,12.52
2023-04-16T07:32:24.909Z,8.93
2023-04-16T07:37:26.829Z,9.82
2023-04-16T07:42:28.760Z,12.27
2023-04-16T07:47:30.557Z,17.02
2023-04-16T07:52:32.497Z,11.55
2023-04-16T07:57:34.431Z,12.45
2023-04-16T08:02:36.442Z,16.08
2023-04-16T08:07:38.308Z,17.80
2023-04-16T08:12:40.217Z,22.15
2023-04-16T08:17:42.081Z,17.10
2023-04-16T08:22:44.798Z,12.70
2023-04-16T08:27:46.591Z,9.93
2023-04-16T08:32:50.156Z,13.45
2023-04-16T08:37:52.294Z,8.88
2023-04-16T08:42:56.345Z,9.75
2023-04-16T08:47:58.524Z,8.73
2023-04-16T08:53:05.596Z,13.85
2023-04-16T08:58:16.442Z,10.75
2023-04-16T09:03:20.415Z,15.32
2023-04-16T09:08:22.515Z,11.20
2023-04-16T09:13:25.319Z,10.57
2023-04-16T09:18:28.514Z,12.50
2023-04-16T09:23:30.662Z,12.57
2023-04-16T09:28:43.414Z,16.08
2023-04-16T09:34:02.203Z,16.95
2023-04-16T09:39:04.376Z,13.40
2023-04-16T09:44:06.267Z,11.07
2023-04-16T09:49:16.202Z,13.95
2023-04-16T09:54:20.404Z,12.10
2023-04-16T09:59:24.052Z,13.00
2023-04-16T10:04:26.026Z,15.45
2023-04-16T10:09:32.293Z,15.90
2023-04-16T10:14:35.249Z,14.10
2023-04-16T10:19:37.500Z,15.55
2023-04-16T10:24:41.251Z,14.52
2023-04-16T10:29:44.150Z,14.48
2023-04-16T10:34:47.037Z,19.48
2023-04-16T10:39:49.802Z,17.63
2023-04-16T10:44:51.651Z,16.83
2023-04-16T10:49:53.458Z,15.20
2023-04-16T10:54:55.788Z,11.57
2023-04-16T10:59:59.417Z,10.98
2023-04-16T11:05:02.021Z,12.23
2023-04-16T11:10:05.824Z,13.35
2023-04-16T11:15:14.171Z,10.77
2023-04-16T11:20:34.039Z,9.20
2023-04-16T11:25:35.831Z,9.90
2023-04-16T11:30:39.418Z,11.52
2023-04-16T11:35:41.585Z,11.20
2023-04-16T11:40:43.523Z,10.60
2023-04-16T11:46:27.007Z,13.02
2023-04-16T11:51:30.107Z,10.88
2023-04-16T11:56:35.841Z,10.95
2023-04-16T12:01:39.407Z,11.07
2023-04-16T12:06:41.732Z,7.70
2023-04-16T12:11:43.769Z,12.27
2023-04-16T12:16:45.689Z,10.65
2023-04-16T12:21:49.520Z,8.48
2023-04-16T12:27:03.252Z,6.55
2023-04-16T12:32:05.246Z,5.63
2023-04-16T12:37:11.105Z,6.88
2023-04-16T12:42:12.915Z,6.25
2023-04-16T12:47:14.786Z,7.28
2023-04-16T12:52:16.537Z,6.30
2023-04-16T12:57:18.462Z,8.02
2023-04-16T13:02:20.508Z,6.10
2023-04-16T13:07:22.568Z,5.07
2023-04-16T13:12:24.377Z,7.80
2023-04-16T13:17:26.306Z,6.15
2023-04-16T13:22:28.579Z,5.45
2023-04-16T13:27:32.166Z,5.55
2023-04-16T13:32:34.125Z,6.00
2023-04-16T13:37:35.947Z,6.65
2023-04-16T13:42:37.806Z,6.55
2023-04-16T13:47:43.651Z,6.85
2023-04-16T13:52:45.544Z,9.82
2023-04-16T13:57:47.825Z,7.43
2023-04-16T14:02:50.050Z,6.50
2023-04-16T14:07:52.123Z,9.02
2023-04-16T14:12:54.204Z,8.45
2023-04-16T14:17:56.535Z,8.35
2023-04-16T14:22:58.758Z,11.60
2023-04-16T14:28:01.204Z,8.63
2023-04-16T14:33:05.894Z,9.70
2023-04-16T14:38:07.838Z,9.10
2023-04-16T14:43:09.633Z,8.57
2023-04-16T14:48:11.549Z,9.40
2023-04-16T14:53:13.753Z,9.48
2023-04-16T14:58:15.713Z,8.68
2023-04-16T15:03:17.839Z,9.05
2023-04-16T15:08:19.774Z,10.00
2023-04-16T15:13:21.572Z,12.40
2023-04-16T15:18:23.380Z,10.23
2023-04-16T15:23:25.256Z,9.68
2023-04-16T15:28:27.205Z,13.95
2023-04-16T15:33:29.109Z,10.32
2023-04-16T15:38:31.123Z,8.65
2023-04-16T15:43:32.907Z,5.97
2023-04-16T15:48:34.813Z,5.47
2023-04-16T15:53:36.624Z,5.13
2023-04-16T15:58:38.430Z,6.68
2023-04-16T16:03:40.491Z,4.32
2023-04-16T16:08:42.643Z,4.90
2023-04-16T16:13:44.419Z,6.95
2023-04-16T16:18:46.250Z,8.25
2023-04-16T16:23:48.047Z,10.55
2023-04-16T16:28:49.894Z,7.18
2023-04-16T16:33:51.780Z,7.13
2023-04-16T16:38:55.212Z,7.38
2023-04-16T16:43:59.230Z,6.72
2023-04-16T16:49:01.408Z,8.63
2023-04-16T16:54:03.671Z,7.00
2023-04-16T16:59:06.279Z,6.65
2023-04-16T17:04:08.482Z,9.95
2023-04-16T17:09:11.556Z,6.93
2023-04-16T17:14:14.034Z,6.80
2023-04-16T17:19:17.525Z,8.43
2023-04-16T17:24:20.068Z,5.45
2023-04-16T17:29:25.980Z,5.50
2023-04-16T17:34:28.337Z,7.57
2023-04-16T17:39:30.137Z,10.07
2023-04-16T17:44:31.946Z,19.20
2023-04-16T17:49:33.853Z,13.98
2023-04-16T17:54:36.185Z,18.77
2023-04-16T17:59:38.203Z,32.20
2023-04-16T18:04:40.223Z,23.00
2023-04-16T18:09:42.197Z,16.17
2023-04-16T18:14:45.038Z,20.60
2023-04-16T18:19:46.941Z,22.73
2023-04-16T18:24:48.740Z,26.63
2023-04-16T18:29:51.395Z,24.45
2023-04-16T18:34:53.805Z,26.13
2023-04-16T18:39:57.923Z,26.08
2023-04-16T18:45:00.112Z,24.30
2023-04-16T18:50:02.122Z,24.83
2023-04-16T18:55:04.135Z,25.95
2023-04-16T19:00:12.806Z,18.98
2023-04-16T19:05:14.661Z,24.88
2023-04-16T19:10:16.727Z,25.90
2023-04-16T19:15:18.830Z,15.60
2023-04-16T19:20:21.328Z,14.77
2023-04-16T19:25:23.107Z,13.18
2023-04-16T19:30:25.582Z,12.73
2023-04-16T19:35:28.190Z,14.00
2023-04-16T19:40:29.969Z,7.78
2023-04-16T19:45:31.967Z,13.30
2023-04-16T19:50:33.776Z,8.77
2023-04-16T19:55:35.703Z,5.38
2023-04-16T20:00:40.767Z,8.65
2023-04-16T20:05:42.723Z,7.90
2023-04-16T20:10:44.554Z,6.22
2023-04-16T20:15:47.303Z,8.18
2023-04-16T20:20:50.810Z,5.80
2023-04-16T20:25:52.658Z,8.20
2023-04-16T20:30:54.677Z,5.13
2023-04-16T20:35:56.632Z,7.50
2023-04-16T20:41:11.170Z,7.82
2023-04-16T20:46:12.959Z,7.88
2023-04-16T20:51:14.806Z,8.40
2023-04-16T20:56:17.032Z,7.05
2023-04-16T21:01:20.729Z,8.05
2023-04-16T21:06:22.651Z,8.52
2023-04-16T21:11:24.555Z,10.25
2023-04-16T21:16:26.362Z,8.32
2023-04-16T21:21:28.405Z,10.90
2023-04-16T21:26:30.370Z,8.90
2023-04-16T21:31:32.216Z,7.60
2023-04-16T21:36:34.243Z,6.65
2023-04-16T21:41:36.156Z,5.07
2023-04-16T21:46:37.988Z,5.88
2023-04-16T21:51:40.732Z,8.55
2023-04-16T21:56:42.628Z,10.40
2023-04-16T22:01:44.421Z,9.82
2023-04-16T22:06:46.346Z,12.48
2023-04-16T22:11:48.115Z,13.20
2023-04-16T22:16:51.809Z,13.40
2023-04-16T22:21:54.099Z,15.70
2023-04-16T22:26:57.057Z,13.38
2023-04-16T22:32:00.789Z,18.05
2023-04-16T22:37:03.174Z,14.73
2023-04-16T22:42:05.204Z,14.98
2023-04-16T22:47:06.987Z,14.13
2023-04-16T22:52:08.922Z,15.85
2023-04-16T22:57:10.795Z,13.02
2023-04-16T23:02:12.574Z,15.45
2023-04-16T23:07:15.652Z,13.65
2023-04-16T23:12:17.717Z,18.23
2023-04-16T23:17:19.493Z,17.33
2023-04-16T23:22:21.297Z,19.73
2023-04-16T23:27:23.109Z,19.10
2023-04-16T23:32:25.001Z,15.50
2023-04-16T23:37:26.965Z,15.30
2023-04-16T23:42:28.725Z,16.60
2023-04-16T23:47:30.572Z,15.90
2023-04-16T23:52:32.372Z,15.88
2023-04-16T23:57:34.153Z,17.75
